sensor_id;sensor_type;location;lat;lon;timestamp;P1;durP1;ratioP1;P2;durP2;ratioP2
71566;SDS011;59403;47.456;19.120;2023-04-03T00:02:07;5.45;;;3.28;;
71566;SDS011;59403;47.456;19.120;2023-04-03T00:04:34;6.32;;;3.65;;
71566;SDS011;59403;47.456;19.120;2023-04-03T00:07:01;6.75;;;3.40;;
71566;SDS011;59403;47.456;19.120;2023-04-03T00:09:30;5.80;;;3.63;;
71566;SDS011;59403;47.456;19.120;2023-04-03T00:11:57;5.37;;;3.55;;
71566;SDS011;59403;47.456;19.120;2023-04-03T00:14:24;6.65;;;3.72;;
71566;SDS011;59403;47.456;19.120;2023-04-03T00:16:51;6.18;;;3.58;;
71566;SDS011;59403;47.456;19.120;2023-04-03T00:19:17;6.82;;;3.95;;
71566;SDS011;59403;47.456;19.120;2023-04-03T00:21:44;5.87;;;3.77;;
71566;SDS011;59403;47.456;19.120;2023-04-03T00:24:11;5.18;;;3.20;;
71566;SDS011;59403;47.456;19.120;2023-04-03T00:26:39;5.97;;;3.83;;
71566;SDS011;59403;47.456;19.120;2023-04-03T00:29:06;7.40;;;3.85;;
71566;SDS011;59403;47.456;19.120;2023-04-03T00:31:33;6.28;;;3.75;;
71566;SDS011;59403;47.456;19.120;2023-04-03T00:34:00;5.83;;;3.43;;
71566;SDS011;59403;47.456;19.120;2023-04-03T00:36:27;6.65;;;4.00;;
71566;SDS011;59403;47.456;19.120;2023-04-03T00:38:54;6.00;;;4.00;;
71566;SDS011;59403;47.456;19.120;2023-04-03T00:41:21;5.93;;;3.70;;
71566;SDS011;59403;47.456;19.120;2023-04-03T00:43:49;6.40;;;3.95;;
71566;SDS011;59403;47.456;19.120;2023-04-03T00:46:15;7.13;;;3.97;;
71566;SDS011;59403;47.456;19.120;2023-04-03T00:48:43;8.65;;;4.30;;
71566;SDS011;59403;47.456;19.120;2023-04-03T00:51:13;9.73;;;4.87;;
71566;SDS011;59403;47.456;19.120;2023-04-03T00:53:44;6.95;;;4.20;;
71566;SDS011;59403;47.456;19.120;2023-04-03T00:56:15;7.68;;;4.60;;
71566;SDS011;59403;47.456;19.120;2023-04-03T00:58:47;6.00;;;4.00;;
71566;SDS011;59403;47.456;19.120;2023-04-03T01:04:26;7.35;;;4.10;;
71566;SDS011;59403;47.456;19.120;2023-04-03T01:06:57;5.90;;;3.90;;
71566;SDS011;59403;47.456;19.120;2023-04-03T01:09:30;6.45;;;3.92;;
71566;SDS011;59403;47.456;19.120;2023-04-03T01:12:12;7.03;;;4.23;;
71566;SDS011;59403;47.456;19.120;2023-04-03T01:14:43;6.30;;;4.00;;
71566;SDS011;59403;47.456;19.120;2023-04-03T01:17:27;6.37;;;4.57;;
71566;SDS011;59403;47.456;19.120;2023-04-03T01:20:00;6.30;;;4.05;;
71566;SDS011;59403;47.456;19.120;2023-04-03T01:22:46;6.20;;;3.85;;
71566;SDS011;59403;47.456;19.120;2023-04-03T01:25:22;5.60;;;3.50;;
71566;SDS011;59403;47.456;19.120;2023-04-03T01:27:49;7.78;;;4.03;;
71566;SDS011;59403;47.456;19.120;2023-04-03T01:30:19;5.60;;;3.53;;
71566;SDS011;59403;47.456;19.120;2023-04-03T01:32:48;7.07;;;3.70;;
71566;SDS011;59403;47.456;19.120;2023-04-03T01:35:15;6.22;;;3.67;;
71566;SDS011;59403;47.456;19.120;2023-04-03T01:37:42;6.27;;;3.40;;
71566;SDS011;59403;47.456;19.120;2023-04-03T01:40:10;6.00;;;3.42;;
71566;SDS011;59403;47.456;19.120;2023-04-03T01:42:37;6.80;;;4.22;;
71566;SDS011;59403;47.456;19.120;2023-04-03T01:45:04;6.72;;;3.83;;
71566;SDS011;59403;47.456;19.120;2023-04-03T01:47:32;5.30;;;3.60;;
71566;SDS011;59403;47.456;19.120;2023-04-03T01:50:00;6.10;;;3.47;;
71566;SDS011;59403;47.456;19.120;2023-04-03T01:52:27;5.85;;;3.67;;
71566;SDS011;59403;47.456;19.120;2023-04-03T01:54:55;5.45;;;3.60;;
71566;SDS011;59403;47.456;19.120;2023-04-03T01:57:22;6.28;;;3.33;;
71566;SDS011;59403;47.456;19.120;2023-04-03T01:59:48;5.72;;;3.65;;
71566;SDS011;59403;47.456;19.120;2023-04-03T02:02:16;5.33;;;3.43;;
71566;SDS011;59403;47.456;19.120;2023-04-03T02:04:45;5.87;;;3.35;;
71566;SDS011;59403;47.456;19.120;2023-04-03T02:07:13;5.25;;;3.37;;
71566;SDS011;59403;47.456;19.120;2023-04-03T02:09:41;4.70;;;3.20;;
71566;SDS011;59403;47.456;19.120;2023-04-03T02:12:08;4.87;;;3.12;;
71566;SDS011;59403;47.456;19.120;2023-04-03T02:14:34;6.87;;;3.50;;
71566;SDS011;59403;47.456;19.120;2023-04-03T02:17:01;5.65;;;3.60;;
71566;SDS011;59403;47.456;19.120;2023-04-03T02:19:33;5.18;;;3.40;;
71566;SDS011;59403;47.456;19.120;2023-04-03T02:22:00;5.53;;;3.45;;
71566;SDS011;59403;47.456;19.120;2023-04-03T02:24:28;5.82;;;3.42;;
71566;SDS011;59403;47.456;19.120;2023-04-03T02:26:56;5.60;;;3.03;;
71566;SDS011;59403;47.456;19.120;2023-04-03T02:29:22;5.20;;;3.00;;
71566;SDS011;59403;47.456;19.120;2023-04-03T02:31:49;4.87;;;3.08;;
71566;SDS011;59403;47.456;19.120;2023-04-03T02:34:16;5.37;;;2.90;;
71566;SDS011;59403;47.456;19.120;2023-04-03T02:36:44;5.47;;;2.95;;
71566;SDS011;59403;47.456;19.120;2023-04-03T02:39:11;5.23;;;3.20;;
71566;SDS011;59403;47.456;19.120;2023-04-03T02:41:40;4.78;;;2.83;;
71566;SDS011;59403;47.456;19.120;2023-04-03T02:44:08;5.97;;;3.50;;
71566;SDS011;59403;47.456;19.120;2023-04-03T02:46:38;6.55;;;2.90;;
71566;SDS011;59403;47.456;19.120;2023-04-03T02:49:05;5.12;;;2.80;;
71566;SDS011;59403;47.456;19.120;2023-04-03T02:51:32;5.93;;;3.00;;
71566;SDS011;59403;47.456;19.120;2023-04-03T02:53:59;5.28;;;2.95;;
71566;SDS011;59403;47.456;19.120;2023-04-03T02:56:25;4.97;;;3.00;;
71566;SDS011;59403;47.456;19.120;2023-04-03T02:58:54;4.65;;;2.87;;
71566;SDS011;59403;47.456;19.120;2023-04-03T03:01:21;4.70;;;3.12;;
71566;SDS011;59403;47.456;19.120;2023-04-03T03:03:48;4.10;;;2.50;;
71566;SDS011;59403;47.456;19.120;2023-04-03T03:06:16;6.62;;;2.78;;
71566;SDS011;59403;47.456;19.120;2023-04-03T03:08:44;5.65;;;3.05;;
71566;SDS011;59403;47.456;19.120;2023-04-03T03:11:11;5.47;;;3.05;;
71566;SDS011;59403;47.456;19.120;2023-04-03T03:13:38;5.20;;;2.92;;
71566;SDS011;59403;47.456;19.120;2023-04-03T03:16:07;3.93;;;2.30;;
71566;SDS011;59403;47.456;19.120;2023-04-03T03:18:34;4.40;;;2.75;;
71566;SDS011;59403;47.456;19.120;2023-04-03T03:21:02;4.90;;;2.92;;
71566;SDS011;59403;47.456;19.120;2023-04-03T03:23:30;4.60;;;2.78;;
71566;SDS011;59403;47.456;19.120;2023-04-03T03:25:58;9.32;;;3.42;;
71566;SDS011;59403;47.456;19.120;2023-04-03T03:28:27;5.10;;;2.83;;
71566;SDS011;59403;47.456;19.120;2023-04-03T03:30:54;5.60;;;2.95;;
71566;SDS011;59403;47.456;19.120;2023-04-03T03:33:22;4.43;;;2.85;;
71566;SDS011;59403;47.456;19.120;2023-04-03T03:35:50;4.35;;;2.92;;
71566;SDS011;59403;47.456;19.120;2023-04-03T03:38:18;4.47;;;2.45;;
71566;SDS011;59403;47.456;19.120;2023-04-03T03:40:46;5.00;;;2.70;;
71566;SDS011;59403;47.456;19.120;2023-04-03T03:43:13;5.47;;;3.20;;
71566;SDS011;59403;47.456;19.120;2023-04-03T03:45:40;4.80;;;3.00;;
71566;SDS011;59403;47.456;19.120;2023-04-03T03:48:07;3.85;;;2.60;;
71566;SDS011;59403;47.456;19.120;2023-04-03T03:50:36;5.35;;;2.72;;
71566;SDS011;59403;47.456;19.120;2023-04-03T03:53:03;4.70;;;2.90;;
71566;SDS011;59403;47.456;19.120;2023-04-03T03:55:30;4.68;;;2.50;;
71566;SDS011;59403;47.456;19.120;2023-04-03T03:57:57;5.12;;;2.85;;
71566;SDS011;59403;47.456;19.120;2023-04-03T04:00:25;4.22;;;2.60;;
71566;SDS011;59403;47.456;19.120;2023-04-03T04:02:52;4.30;;;2.78;;
71566;SDS011;59403;47.456;19.120;2023-04-03T04:05:18;5.50;;;2.70;;
71566;SDS011;59403;47.456;19.120;2023-04-03T04:07:47;4.30;;;2.65;;
71566;SDS011;59403;47.456;19.120;2023-04-03T04:10:14;5.00;;;3.25;;
71566;SDS011;59403;47.456;19.120;2023-04-03T04:12:41;4.57;;;2.80;;
71566;SDS011;59403;47.456;19.120;2023-04-03T04:15:09;4.60;;;2.75;;
71566;SDS011;59403;47.456;19.120;2023-04-03T04:17:36;4.93;;;2.80;;
71566;SDS011;59403;47.456;19.120;2023-04-03T04:20:03;4.18;;;2.60;;
71566;SDS011;59403;47.456;19.120;2023-04-03T04:22:31;4.85;;;3.00;;
71566;SDS011;59403;47.456;19.120;2023-04-03T04:24:59;5.90;;;3.30;;
71566;SDS011;59403;47.456;19.120;2023-04-03T04:27:26;5.05;;;3.08;;
71566;SDS011;59403;47.456;19.120;2023-04-03T04:29:53;5.87;;;2.77;;
71566;SDS011;59403;47.456;19.120;2023-04-03T04:32:21;5.90;;;2.87;;
71566;SDS011;59403;47.456;19.120;2023-04-03T04:34:47;5.55;;;3.17;;
71566;SDS011;59403;47.456;19.120;2023-04-03T04:37:14;4.40;;;2.37;;
71566;SDS011;59403;47.456;19.120;2023-04-03T04:39:41;5.68;;;2.72;;
71566;SDS011;59403;47.456;19.120;2023-04-03T04:42:09;6.13;;;3.00;;
71566;SDS011;59403;47.456;19.120;2023-04-03T04:44:38;4.93;;;2.90;;
71566;SDS011;59403;47.456;19.120;2023-04-03T04:47:05;5.60;;;2.97;;
71566;SDS011;59403;47.456;19.120;2023-04-03T04:49:32;5.95;;;3.20;;
71566;SDS011;59403;47.456;19.120;2023-04-03T04:51:59;6.25;;;3.30;;
71566;SDS011;59403;47.456;19.120;2023-04-03T04:54:25;5.67;;;2.90;;
71566;SDS011;59403;47.456;19.120;2023-04-03T04:56:52;5.40;;;2.70;;
71566;SDS011;59403;47.456;19.120;2023-04-03T04:59:20;4.35;;;2.75;;
71566;SDS011;59403;47.456;19.120;2023-04-03T05:01:47;5.78;;;3.00;;
71566;SDS011;59403;47.456;19.120;2023-04-03T05:04:15;5.35;;;2.90;;
71566;SDS011;59403;47.456;19.120;2023-04-03T05:06:42;5.57;;;3.47;;
71566;SDS011;59403;47.456;19.120;2023-04-03T05:09:09;5.53;;;2.70;;
71566;SDS011;59403;47.456;19.120;2023-04-03T05:11:36;4.82;;;3.17;;
71566;SDS011;59403;47.456;19.120;2023-04-03T05:14:03;5.30;;;3.28;;
71566;SDS011;59403;47.456;19.120;2023-04-03T05:16:33;5.07;;;3.00;;
71566;SDS011;59403;47.456;19.120;2023-04-03T05:19:00;6.63;;;3.07;;
71566;SDS011;59403;47.456;19.120;2023-04-03T05:21:27;4.72;;;2.78;;
71566;SDS011;59403;47.456;19.120;2023-04-03T05:23:57;5.50;;;3.03;;
71566;SDS011;59403;47.456;19.120;2023-04-03T05:26:24;4.95;;;3.30;;
71566;SDS011;59403;47.456;19.120;2023-04-03T05:28:51;6.00;;;3.15;;
71566;SDS011;59403;47.456;19.120;2023-04-03T05:31:18;5.40;;;3.07;;
71566;SDS011;59403;47.456;19.120;2023-04-03T05:33:47;7.05;;;2.72;;
71566;SDS011;59403;47.456;19.120;2023-04-03T05:36:14;4.85;;;2.65;;
71566;SDS011;59403;47.456;19.120;2023-04-03T05:38:42;5.32;;;3.12;;
71566;SDS011;59403;47.456;19.120;2023-04-03T05:41:08;5.97;;;3.30;;
71566;SDS011;59403;47.456;19.120;2023-04-03T05:43:35;5.77;;;3.10;;
71566;SDS011;59403;47.456;19.120;2023-04-03T05:46:04;5.07;;;2.62;;
71566;SDS011;59403;47.456;19.120;2023-04-03T05:48:34;5.28;;;2.83;;
71566;SDS011;59403;47.456;19.120;2023-04-03T05:51:03;5.12;;;2.92;;
71566;SDS011;59403;47.456;19.120;2023-04-03T05:53:31;5.00;;;2.87;;
71566;SDS011;59403;47.456;19.120;2023-04-03T05:56:01;5.10;;;2.83;;
71566;SDS011;59403;47.456;19.120;2023-04-03T05:58:28;5.85;;;3.37;;
71566;SDS011;59403;47.456;19.120;2023-04-03T06:00:56;5.85;;;3.35;;
71566;SDS011;59403;47.456;19.120;2023-04-03T06:03:22;4.97;;;2.92;;
71566;SDS011;59403;47.456;19.120;2023-04-03T06:05:50;6.05;;;3.70;;
71566;SDS011;59403;47.456;19.120;2023-04-03T06:08:18;4.73;;;2.77;;
71566;SDS011;59403;47.456;19.120;2023-04-03T06:10:45;5.55;;;3.58;;
71566;SDS011;59403;47.456;19.120;2023-04-03T06:13:12;6.03;;;3.45;;
71566;SDS011;59403;47.456;19.120;2023-04-03T06:15:40;5.68;;;3.05;;
71566;SDS011;59403;47.456;19.120;2023-04-03T06:18:07;6.15;;;3.20;;
71566;SDS011;59403;47.456;19.120;2023-04-03T06:20:34;5.10;;;2.97;;
71566;SDS011;59403;47.456;19.120;2023-04-03T06:23:01;5.07;;;2.95;;
71566;SDS011;59403;47.456;19.120;2023-04-03T06:25:29;5.62;;;2.75;;
71566;SDS011;59403;47.456;19.120;2023-04-03T06:27:56;5.47;;;2.87;;
71566;SDS011;59403;47.456;19.120;2023-04-03T06:30:23;4.95;;;3.00;;
71566;SDS011;59403;47.456;19.120;2023-04-03T06:32:50;5.87;;;3.17;;
71566;SDS011;59403;47.456;19.120;2023-04-03T06:35:17;4.62;;;2.80;;
71566;SDS011;59403;47.456;19.120;2023-04-03T06:37:44;5.15;;;3.20;;
71566;SDS011;59403;47.456;19.120;2023-04-03T06:40:13;5.97;;;3.10;;
71566;SDS011;59403;47.456;19.120;2023-04-03T06:42:47;4.97;;;3.12;;
71566;SDS011;59403;47.456;19.120;2023-04-03T06:45:16;7.00;;;2.77;;
71566;SDS011;59403;47.456;19.120;2023-04-03T06:47:43;5.25;;;3.00;;
71566;SDS011;59403;47.456;19.120;2023-04-03T06:50:10;6.12;;;3.30;;
71566;SDS011;59403;47.456;19.120;2023-04-03T06:52:39;6.22;;;3.55;;
71566;SDS011;59403;47.456;19.120;2023-04-03T06:55:06;5.47;;;3.12;;
71566;SDS011;59403;47.456;19.120;2023-04-03T06:57:34;6.67;;;3.30;;
71566;SDS011;59403;47.456;19.120;2023-04-03T07:00:04;6.10;;;3.40;;
71566;SDS011;59403;47.456;19.120;2023-04-03T07:02:32;6.22;;;2.97;;
71566;SDS011;59403;47.456;19.120;2023-04-03T07:04:59;7.50;;;3.20;;
71566;SDS011;59403;47.456;19.120;2023-04-03T07:07:26;4.95;;;2.80;;
71566;SDS011;59403;47.456;19.120;2023-04-03T07:09:53;6.77;;;3.17;;
71566;SDS011;59403;47.456;19.120;2023-04-03T07:12:20;4.57;;;2.83;;
71566;SDS011;59403;47.456;19.120;2023-04-03T07:14:47;5.03;;;2.80;;
71566;SDS011;59403;47.456;19.120;2023-04-03T07:17:15;4.00;;;2.50;;
71566;SDS011;59403;47.456;19.120;2023-04-03T07:19:42;3.35;;;2.20;;
71566;SDS011;59403;47.456;19.120;2023-04-03T07:22:09;3.80;;;2.17;;
71566;SDS011;59403;47.456;19.120;2023-04-03T07:24:37;4.18;;;2.15;;
71566;SDS011;59403;47.456;19.120;2023-04-03T07:27:08;3.83;;;2.55;;
71566;SDS011;59403;47.456;19.120;2023-04-03T07:29:37;3.78;;;2.08;;
71566;SDS011;59403;47.456;19.120;2023-04-03T07:32:05;3.62;;;1.98;;
71566;SDS011;59403;47.456;19.120;2023-04-03T07:34:34;5.27;;;2.13;;
71566;SDS011;59403;47.456;19.120;2023-04-03T07:37:01;5.43;;;2.20;;
71566;SDS011;59403;47.456;19.120;2023-04-03T07:39:29;3.90;;;2.17;;
71566;SDS011;59403;47.456;19.120;2023-04-03T07:41:56;3.85;;;2.10;;
71566;SDS011;59403;47.456;19.120;2023-04-03T07:44:24;4.32;;;2.17;;
71566;SDS011;59403;47.456;19.120;2023-04-03T07:46:51;4.07;;;1.90;;
71566;SDS011;59403;47.456;19.120;2023-04-03T07:49:18;3.10;;;2.10;;
71566;SDS011;59403;47.456;19.120;2023-04-03T07:51:49;3.78;;;2.03;;
71566;SDS011;59403;47.456;19.120;2023-04-03T07:54:16;3.50;;;2.20;;
71566;SDS011;59403;47.456;19.120;2023-04-03T07:56:43;3.72;;;2.10;;
71566;SDS011;59403;47.456;19.120;2023-04-03T07:59:10;4.17;;;1.97;;
71566;SDS011;59403;47.456;19.120;2023-04-03T08:01:37;3.67;;;1.90;;
71566;SDS011;59403;47.456;19.120;2023-04-03T08:04:04;3.75;;;2.35;;
71566;SDS011;59403;47.456;19.120;2023-04-03T08:06:31;3.67;;;2.00;;
71566;SDS011;59403;47.456;19.120;2023-04-03T08:09:02;4.00;;;1.80;;
71566;SDS011;59403;47.456;19.120;2023-04-03T08:11:30;4.70;;;1.77;;
71566;SDS011;59403;47.456;19.120;2023-04-03T08:13:57;3.83;;;2.03;;
71566;SDS011;59403;47.456;19.120;2023-04-03T08:16:24;4.95;;;1.87;;
71566;SDS011;59403;47.456;19.120;2023-04-03T08:18:52;3.75;;;1.60;;
71566;SDS011;59403;47.456;19.120;2023-04-03T08:21:19;3.30;;;2.08;;
71566;SDS011;59403;47.456;19.120;2023-04-03T08:23:47;4.13;;;2.00;;
71566;SDS011;59403;47.456;19.120;2023-04-03T08:26:17;3.05;;;1.83;;
71566;SDS011;59403;47.456;19.120;2023-04-03T08:28:45;3.62;;;1.90;;
71566;SDS011;59403;47.456;19.120;2023-04-03T08:31:13;4.15;;;1.85;;
71566;SDS011;59403;47.456;19.120;2023-04-03T08:33:42;3.78;;;1.80;;
71566;SDS011;59403;47.456;19.120;2023-04-03T08:36:16;3.60;;;1.70;;
71566;SDS011;59403;47.456;19.120;2023-04-03T08:38:45;3.08;;;1.80;;
71566;SDS011;59403;47.456;19.120;2023-04-03T08:41:13;3.62;;;1.98;;
71566;SDS011;59403;47.456;19.120;2023-04-03T08:43:53;3.00;;;1.67;;
71566;SDS011;59403;47.456;19.120;2023-04-03T08:46:26;4.80;;;2.00;;
71566;SDS011;59403;47.456;19.120;2023-04-03T08:49:07;3.50;;;1.93;;
71566;SDS011;59403;47.456;19.120;2023-04-03T08:51:43;2.78;;;1.60;;
71566;SDS011;59403;47.456;19.120;2023-04-03T08:54:17;3.00;;;1.92;;
71566;SDS011;59403;47.456;19.120;2023-04-03T08:56:51;2.95;;;1.62;;
71566;SDS011;59403;47.456;19.120;2023-04-03T08:59:22;3.37;;;1.80;;
71566;SDS011;59403;47.456;19.120;2023-04-03T09:01:54;3.10;;;1.80;;
71566;SDS011;59403;47.456;19.120;2023-04-03T09:04:24;4.05;;;1.83;;
71566;SDS011;59403;47.456;19.120;2023-04-03T09:06:55;3.50;;;1.85;;
71566;SDS011;59403;47.456;19.120;2023-04-03T09:09:30;5.10;;;2.30;;
71566;SDS011;59403;47.456;19.120;2023-04-03T09:12:00;3.53;;;1.77;;
71566;SDS011;59403;47.456;19.120;2023-04-03T09:14:38;3.37;;;1.93;;
71566;SDS011;59403;47.456;19.120;2023-04-03T09:17:12;3.33;;;1.52;;
71566;SDS011;59403;47.456;19.120;2023-04-03T09:19:45;3.70;;;1.87;;
71566;SDS011;59403;47.456;19.120;2023-04-03T09:22:20;3.28;;;1.60;;
71566;SDS011;59403;47.456;19.120;2023-04-03T09:24:50;3.05;;;2.33;;
71566;SDS011;59403;47.456;19.120;2023-04-03T09:27:22;4.17;;;1.77;;
71566;SDS011;59403;47.456;19.120;2023-04-03T09:29:52;3.03;;;1.50;;
71566;SDS011;59403;47.456;19.120;2023-04-03T09:32:22;6.70;;;1.70;;
71566;SDS011;59403;47.456;19.120;2023-04-03T09:34:53;2.67;;;1.67;;
71566;SDS011;59403;47.456;19.120;2023-04-03T09:40:05;3.33;;;1.70;;
71566;SDS011;59403;47.456;19.120;2023-04-03T09:42:53;2.85;;;1.55;;
71566;SDS011;59403;47.456;19.120;2023-04-03T09:45:24;3.97;;;1.67;;
71566;SDS011;59403;47.456;19.120;2023-04-03T09:48:03;2.60;;;1.60;;
71566;SDS011;59403;47.456;19.120;2023-04-03T09:50:32;2.85;;;1.40;;
71566;SDS011;59403;47.456;19.120;2023-04-03T09:53:04;2.37;;;1.47;;
71566;SDS011;59403;47.456;19.120;2023-04-03T09:55:33;3.80;;;1.55;;
71566;SDS011;59403;47.456;19.120;2023-04-03T09:58:22;2.47;;;1.12;;
71566;SDS011;59403;47.456;19.120;2023-04-03T10:00:55;2.92;;;1.25;;
71566;SDS011;59403;47.456;19.120;2023-04-03T10:03:24;3.30;;;1.40;;
71566;SDS011;59403;47.456;19.120;2023-04-03T10:05:54;3.30;;;1.90;;
71566;SDS011;59403;47.456;19.120;2023-04-03T10:08:24;3.42;;;1.40;;
71566;SDS011;59403;47.456;19.120;2023-04-03T10:11:07;2.95;;;1.60;;
71566;SDS011;59403;47.456;19.120;2023-04-03T10:13:36;2.53;;;1.50;;
71566;SDS011;59403;47.456;19.120;2023-04-03T10:16:17;3.22;;;1.73;;
71566;SDS011;59403;47.456;19.120;2023-04-03T10:18:48;2.83;;;1.50;;
71566;SDS011;59403;47.456;19.120;2023-04-03T10:21:25;2.25;;;1.33;;
71566;SDS011;59403;47.456;19.120;2023-04-03T10:24:02;2.50;;;1.37;;
71566;SDS011;59403;47.456;19.120;2023-04-03T10:26:38;2.47;;;1.23;;
71566;SDS011;59403;47.456;19.120;2023-04-03T10:29:13;3.10;;;1.52;;
71566;SDS011;59403;47.456;19.120;2023-04-03T10:31:53;2.93;;;2.00;;
71566;SDS011;59403;47.456;19.120;2023-04-03T10:34:29;2.95;;;1.48;;
71566;SDS011;59403;47.456;19.120;2023-04-03T10:37:04;2.17;;;1.40;;
71566;SDS011;59403;47.456;19.120;2023-04-03T10:39:42;2.28;;;0.80;;
71566;SDS011;59403;47.456;19.120;2023-04-03T10:42:18;1.85;;;0.88;;
71566;SDS011;59403;47.456;19.120;2023-04-03T10:44:53;2.73;;;1.00;;
71566;SDS011;59403;47.456;19.120;2023-04-03T10:47:36;1.80;;;0.80;;
71566;SDS011;59403;47.456;19.120;2023-04-03T10:50:20;2.55;;;1.10;;
71566;SDS011;59403;47.456;19.120;2023-04-03T10:52:55;1.87;;;1.00;;
71566;SDS011;59403;47.456;19.120;2023-04-03T10:55:30;1.80;;;1.00;;
71566;SDS011;59403;47.456;19.120;2023-04-03T10:58:02;4.33;;;1.00;;
71566;SDS011;59403;47.456;19.120;2023-04-03T11:00:33;2.55;;;1.00;;
71566;SDS011;59403;47.456;19.120;2023-04-03T11:03:08;1.67;;;0.98;;
71566;SDS011;59403;47.456;19.120;2023-04-03T11:05:40;2.60;;;1.20;;
71566;SDS011;59403;47.456;19.120;2023-04-03T11:08:11;1.83;;;1.10;;
71566;SDS011;59403;47.456;19.120;2023-04-03T11:10:45;1.90;;;0.90;;
71566;SDS011;59403;47.456;19.120;2023-04-03T11:13:17;3.30;;;1.10;;
71566;SDS011;59403;47.456;19.120;2023-04-03T11:15:48;1.80;;;0.98;;
71566;SDS011;59403;47.456;19.120;2023-04-03T11:18:20;1.77;;;0.85;;
71566;SDS011;59403;47.456;19.120;2023-04-03T11:20:53;2.87;;;0.90;;
71566;SDS011;59403;47.456;19.120;2023-04-03T11:23:29;2.57;;;0.80;;
71566;SDS011;59403;47.456;19.120;2023-04-03T11:26:01;3.37;;;0.80;;
71566;SDS011;59403;47.456;19.120;2023-04-03T11:28:37;2.67;;;1.12;;
71566;SDS011;59403;47.456;19.120;2023-04-03T11:31:08;2.75;;;0.80;;
71566;SDS011;59403;47.456;19.120;2023-04-03T11:34:05;2.22;;;0.90;;
71566;SDS011;59403;47.456;19.120;2023-04-03T11:36:42;1.90;;;0.60;;
71566;SDS011;59403;47.456;19.120;2023-04-03T11:39:17;1.90;;;0.65;;
71566;SDS011;59403;47.456;19.120;2023-04-03T11:41:48;2.28;;;1.02;;
71566;SDS011;59403;47.456;19.120;2023-04-03T11:44:29;3.22;;;0.90;;
71566;SDS011;59403;47.456;19.120;2023-04-03T11:47:02;2.40;;;0.82;;
71566;SDS011;59403;47.456;19.120;2023-04-03T11:55:42;1.90;;;1.08;;
71566;SDS011;59403;47.456;19.120;2023-04-03T11:58:25;1.62;;;0.77;;
71566;SDS011;59403;47.456;19.120;2023-04-03T12:00:57;3.33;;;0.70;;
71566;SDS011;59403;47.456;19.120;2023-04-03T12:12:31;2.12;;;0.70;;
71566;SDS011;59403;47.456;19.120;2023-04-03T12:17:51;1.43;;;0.63;;
71566;SDS011;59403;47.456;19.120;2023-04-03T12:23:29;2.25;;;0.90;;
71566;SDS011;59403;47.456;19.120;2023-04-03T12:26:04;1.85;;;0.85;;
71566;SDS011;59403;47.456;19.120;2023-04-03T12:28:44;1.73;;;0.95;;
71566;SDS011;59403;47.456;19.120;2023-04-03T12:31:13;2.20;;;0.80;;
71566;SDS011;59403;47.456;19.120;2023-04-03T12:33:52;3.62;;;0.90;;
71566;SDS011;59403;47.456;19.120;2023-04-03T12:36:33;1.77;;;0.90;;
71566;SDS011;59403;47.456;19.120;2023-04-03T12:39:17;3.53;;;1.00;;
71566;SDS011;59403;47.456;19.120;2023-04-03T12:42:06;1.95;;;0.80;;
71566;SDS011;59403;47.456;19.120;2023-04-03T12:44:45;2.43;;;0.93;;
71566;SDS011;59403;47.456;19.120;2023-04-03T12:47:23;1.98;;;0.90;;
71566;SDS011;59403;47.456;19.120;2023-04-03T12:49:53;2.35;;;0.95;;
71566;SDS011;59403;47.456;19.120;2023-04-03T12:52:26;2.22;;;1.00;;
71566;SDS011;59403;47.456;19.120;2023-04-03T12:54:59;2.65;;;0.90;;
71566;SDS011;59403;47.456;19.120;2023-04-03T12:57:30;2.73;;;1.13;;
71566;SDS011;59403;47.456;19.120;2023-04-03T12:59:58;4.35;;;1.30;;
71566;SDS011;59403;47.456;19.120;2023-04-03T13:02:26;2.37;;;1.17;;
71566;SDS011;59403;47.456;19.120;2023-04-03T13:04:55;1.30;;;0.50;;
71566;SDS011;59403;47.456;19.120;2023-04-03T13:07:25;2.08;;;0.73;;
71566;SDS011;59403;47.456;19.120;2023-04-03T13:09:59;2.07;;;0.70;;
71566;SDS011;59403;47.456;19.120;2023-04-03T13:12:31;1.58;;;0.80;;
71566;SDS011;59403;47.456;19.120;2023-04-03T13:15:00;1.70;;;0.88;;
71566;SDS011;59403;47.456;19.120;2023-04-03T13:17:30;3.97;;;0.80;;
71566;SDS011;59403;47.456;19.120;2023-04-03T13:20:09;1.87;;;0.70;;
71566;SDS011;59403;47.456;19.120;2023-04-03T13:22:38;2.40;;;0.67;;
71566;SDS011;59403;47.456;19.120;2023-04-03T13:25:13;1.40;;;0.70;;
71566;SDS011;59403;47.456;19.120;2023-04-03T13:27:43;1.50;;;0.62;;
71566;SDS011;59403;47.456;19.120;2023-04-03T13:30:20;2.10;;;0.80;;
71566;SDS011;59403;47.456;19.120;2023-04-03T13:32:52;3.12;;;1.20;;
71566;SDS011;59403;47.456;19.120;2023-04-03T13:35:27;1.70;;;0.80;;
71566;SDS011;59403;47.456;19.120;2023-04-03T13:37:56;1.70;;;0.60;;
71566;SDS011;59403;47.456;19.120;2023-04-03T13:40:25;1.52;;;0.80;;
71566;SDS011;59403;47.456;19.120;2023-04-03T13:43:01;1.50;;;0.60;;
71566;SDS011;59403;47.456;19.120;2023-04-03T13:45:32;1.77;;;0.77;;
71566;SDS011;59403;47.456;19.120;2023-04-03T13:48:14;1.93;;;0.73;;
71566;SDS011;59403;47.456;19.120;2023-04-03T13:50:51;1.67;;;0.80;;
71566;SDS011;59403;47.456;19.120;2023-04-03T13:53:21;1.70;;;0.88;;
71566;SDS011;59403;47.456;19.120;2023-04-03T13:55:53;1.77;;;0.93;;
71566;SDS011;59403;47.456;19.120;2023-04-03T13:58:24;1.62;;;0.52;;
71566;SDS011;59403;47.456;19.120;2023-04-03T14:00:54;1.50;;;0.70;;
71566;SDS011;59403;47.456;19.120;2023-04-03T14:03:28;2.17;;;0.55;;
71566;SDS011;59403;47.456;19.120;2023-04-03T14:05:57;2.25;;;0.90;;
71566;SDS011;59403;47.456;19.120;2023-04-03T14:08:26;1.50;;;0.62;;
71566;SDS011;59403;47.456;19.120;2023-04-03T14:10:53;2.58;;;0.73;;
71566;SDS011;59403;47.456;19.120;2023-04-03T14:13:20;2.37;;;0.70;;
71566;SDS011;59403;47.456;19.120;2023-04-03T14:15:49;2.33;;;0.57;;
71566;SDS011;59403;47.456;19.120;2023-04-03T14:18:17;1.40;;;0.70;;
71566;SDS011;59403;47.456;19.120;2023-04-03T14:20:46;1.75;;;0.70;;
71566;SDS011;59403;47.456;19.120;2023-04-03T14:23:14;2.72;;;0.62;;
71566;SDS011;59403;47.456;19.120;2023-04-03T14:25:41;1.70;;;0.80;;
71566;SDS011;59403;47.456;19.120;2023-04-03T14:28:17;1.27;;;0.62;;
71566;SDS011;59403;47.456;19.120;2023-04-03T14:30:46;2.22;;;0.55;;
71566;SDS011;59403;47.456;19.120;2023-04-03T14:33:16;1.67;;;0.82;;
71566;SDS011;59403;47.456;19.120;2023-04-03T14:35:45;1.73;;;0.80;;
71566;SDS011;59403;47.456;19.120;2023-04-03T14:38:20;2.97;;;0.60;;
71566;SDS011;59403;47.456;19.120;2023-04-03T14:40:49;1.33;;;0.65;;
71566;SDS011;59403;47.456;19.120;2023-04-03T14:43:16;1.52;;;0.70;;
71566;SDS011;59403;47.456;19.120;2023-04-03T14:45:45;1.12;;;0.50;;
71566;SDS011;59403;47.456;19.120;2023-04-03T14:48:13;2.30;;;0.80;;
71566;SDS011;59403;47.456;19.120;2023-04-03T14:50:46;2.10;;;0.90;;
71566;SDS011;59403;47.456;19.120;2023-04-03T14:53:13;1.50;;;0.65;;
71566;SDS011;59403;47.456;19.120;2023-04-03T14:55:42;2.33;;;0.85;;
71566;SDS011;59403;47.456;19.120;2023-04-03T14:58:14;3.03;;;0.75;;
71566;SDS011;59403;47.456;19.120;2023-04-03T15:00:44;3.35;;;1.30;;
71566;SDS011;59403;47.456;19.120;2023-04-03T15:03:14;3.20;;;1.30;;
71566;SDS011;59403;47.456;19.120;2023-04-03T15:05:45;2.22;;;1.12;;
71566;SDS011;59403;47.456;19.120;2023-04-03T15:08:22;2.60;;;1.48;;
71566;SDS011;59403;47.456;19.120;2023-04-03T15:10:51;2.33;;;1.00;;
71566;SDS011;59403;47.456;19.120;2023-04-03T15:13:20;1.80;;;1.35;;
71566;SDS011;59403;47.456;19.120;2023-04-03T15:15:48;2.00;;;1.00;;
71566;SDS011;59403;47.456;19.120;2023-04-03T15:18:17;2.08;;;1.12;;